createdAt,value
2018-12-18T00:00:48.889Z,91.38
2018-12-18T00:01:48.835Z,91.58
2018-12-18T00:02:48.827Z,91.28
2018-12-18T00:03:48.811Z,91.38
2018-12-18T00:04:48.803Z,91.28
2018-12-18T00:05:48.788Z,91.38
2018-12-18T00:06:48.794Z,91.38
2018-12-18T00:07:48.765Z,90.66
2018-12-18T00:08:48.753Z,91.38
2018-12-18T00:09:48.744Z,91.38
2018-12-18T00:10:48.729Z,91.17
2018-12-18T00:11:48.742Z,90.66
2018-12-18T00:12:48.707Z,90.04
2018-12-18T00:13:48.697Z,90.14
2018-12-18T00:14:48.684Z,89.94
2018-12-18T00:15:48.671Z,90.28
2018-12-18T00:16:48.668Z,90.25
2018-12-18T00:17:48.669Z,90.45
2018-12-18T00:18:48.636Z,89.94
2018-12-18T00:19:48.627Z,90.25
2018-12-18T00:20:48.616Z,90.76
2018-12-18T00:21:48.602Z,90.59
2018-12-18T00:22:48.609Z,90.14
2018-12-18T00:23:48.579Z,90.35
2018-12-18T00:24:48.566Z,90.91
2018-12-18T00:25:48.554Z,90.45
2018-12-18T00:26:48.544Z,90.19
2018-12-18T00:27:48.557Z,89.94
2018-12-18T00:28:48.519Z,89.83
2018-12-18T00:29:48.511Z,89.83
2018-12-18T00:30:48.499Z,90.14
2018-12-18T00:31:48.487Z,90.35
2018-12-18T00:32:48.471Z,90.76
2018-12-18T00:33:48.484Z,90.35
2018-12-18T00:34:48.450Z,89.94
2018-12-18T00:35:48.440Z,90.14
2018-12-18T00:36:48.425Z,90.55
2018-12-18T00:37:48.418Z,90.35
2018-12-18T00:38:48.429Z,89.83
2018-12-18T00:39:48.391Z,89.01
2018-12-18T00:40:48.379Z,89.01
2018-12-18T00:41:48.368Z,88.90
2018-12-18T00:42:48.363Z,89.22
2018-12-18T00:43:48.343Z,89.32
2018-12-18T00:44:48.357Z,89.42
2018-12-18T00:45:48.326Z,89.42
2018-12-18T00:46:48.310Z,89.32
2018-12-18T00:47:48.308Z,88.56
2018-12-18T00:48:48.288Z,89.52
2018-12-18T00:49:48.321Z,89.17
2018-12-18T00:50:48.262Z,89.52
2018-12-18T00:51:48.251Z,88.45
2018-12-18T00:52:48.270Z,89.42
2018-12-18T00:53:48.230Z,88.39
2018-12-18T00:54:48.241Z,88.70
2018-12-18T00:55:48.204Z,88.76
2018-12-18T00:56:48.194Z,89.32
2018-12-18T00:57:48.186Z,89.22
2018-12-18T00:58:48.169Z,89.52
2018-12-18T00:59:48.342Z,89.22
2018-12-18T01:00:48.169Z,89.11
2018-12-18T01:01:48.135Z,89.11
2018-12-18T01:02:48.126Z,88.29
2018-12-18T01:03:52.798Z,89.28
2018-12-18T01:04:49.100Z,88.90
2018-12-18T01:05:48.114Z,89.11
2018-12-18T01:06:48.078Z,89.48
2018-12-18T01:07:53.271Z,88.49
2018-12-18T01:08:49.053Z,89.01
2018-12-18T01:09:48.048Z,87.77
2018-12-18T01:10:48.033Z,88.39
2018-12-18T01:11:48.043Z,88.18
2018-12-18T01:12:48.016Z,88.39
2018-12-18T01:13:47.997Z,88.59
2018-12-18T01:14:47.986Z,88.56
2018-12-18T01:15:47.974Z,89.52
2018-12-18T01:16:47.981Z,88.80
2018-12-18T01:17:47.951Z,88.39
2018-12-18T01:18:47.941Z,88.08
2018-12-18T01:19:47.945Z,88.39
2018-12-18T01:20:47.918Z,87.66
2018-12-18T01:21:47.927Z,88.59
2018-12-18T01:22:47.892Z,88.49
2018-12-18T01:23:47.884Z,88.39
2018-12-18T01:24:47.869Z,88.49
2018-12-18T01:25:47.861Z,88.49
2018-12-18T01:26:47.848Z,87.98
2018-12-18T01:27:47.854Z,88.29
2018-12-18T01:28:47.823Z,88.39
2018-12-18T01:29:47.813Z,87.63
2018-12-18T01:30:47.801Z,87.27
2018-12-18T01:31:47.791Z,86.70
2018-12-18T01:32:47.818Z,87.11
2018-12-18T01:33:47.767Z,87.01
2018-12-18T01:34:47.755Z,87.42
2018-12-18T01:35:47.747Z,87.52
2018-12-18T01:36:47.735Z,88.35
2018-12-18T01:37:47.728Z,87.66
2018-12-18T01:38:47.729Z,87.46
2018-12-18T01:39:47.698Z,87.66
2018-12-18T01:40:47.688Z,87.66
2018-12-18T01:41:47.676Z,87.01
2018-12-18T01:42:47.664Z,88.08
2018-12-18T01:43:47.673Z,88.39
2018-12-18T01:44:47.641Z,88.18
2018-12-18T01:45:47.631Z,88.29
2018-12-18T01:46:47.617Z,88.59
2018-12-18T01:47:47.607Z,88.39
2018-12-18T01:48:47.634Z,87.66
2018-12-18T01:49:47.587Z,88.29
2018-12-18T01:50:47.572Z,88.49
2018-12-18T01:51:47.563Z,88.29
2018-12-18T01:52:47.556Z,88.08
2018-12-18T01:53:47.541Z,88.53
2018-12-18T01:54:47.572Z,88.32
2018-12-18T01:55:47.518Z,88.22
2018-12-18T01:56:47.506Z,88.22
2018-12-18T01:57:47.494Z,87.71
2018-12-18T01:58:47.487Z,88.22
2018-12-18T01:59:47.509Z,88.53
2018-12-18T02:00:47.460Z,88.74
2018-12-18T02:01:47.449Z,88.22
2018-12-18T02:02:47.438Z,88.64
2018-12-18T02:03:47.423Z,88.22
2018-12-18T02:04:47.416Z,88.32
2018-12-18T02:05:47.422Z,87.92
2018-12-18T02:06:47.396Z,88.43
2018-12-18T02:07:47.378Z,88.43
2018-12-18T02:08:47.370Z,88.53
2018-12-18T02:09:47.355Z,88.02
2018-12-18T02:10:47.372Z,88.64
2018-12-18T02:11:47.337Z,88.43
2018-12-18T02:12:47.383Z,88.53
2018-12-18T02:13:47.316Z,88.89
2018-12-18T02:14:47.298Z,88.78
2018-12-18T02:15:47.339Z,88.68
2018-12-18T02:16:47.273Z,88.89
2018-12-18T02:17:47.263Z,88.68
2018-12-18T02:18:47.253Z,89.34
2018-12-18T02:19:47.238Z,89.54
2018-12-18T02:20:47.228Z,89.13
2018-12-18T02:21:47.237Z,90.26
2018-12-18T02:22:47.207Z,90.06
2018-12-18T02:23:47.201Z,90.10
2018-12-18T02:24:47.180Z,90.41
2018-12-18T02:25:47.172Z,90.52
2018-12-18T02:26:47.180Z,90.62
2018-12-18T02:27:47.151Z,91.03
2018-12-18T02:28:47.143Z,90.97
2018-12-18T02:29:47.131Z,91.17
2018-12-18T02:30:47.107Z,91.90
2018-12-18T02:31:47.098Z,91.59
2018-12-18T02:32:47.106Z,91.28
2018-12-18T02:33:47.074Z,91.38
2018-12-18T02:34:47.061Z,91.69
2018-12-18T02:35:47.052Z,91.74
2018-12-18T02:36:47.040Z,91.38
2018-12-18T02:37:47.049Z,91.59
2018-12-18T02:38:47.014Z,91.84
2018-12-18T02:39:47.006Z,92.15
2018-12-18T02:40:46.992Z,92.36
2018-12-18T02:41:46.982Z,92.36
2018-12-18T02:42:46.993Z,92.25
2018-12-18T02:43:47.018Z,92.46
2018-12-18T02:44:46.946Z,92.46
2018-12-18T02:45:46.934Z,92.15
2018-12-18T02:46:46.920Z,92.05
2018-12-18T02:47:46.911Z,92.40
2018-12-18T02:48:46.916Z,92.40
2018-12-18T02:49:46.890Z,92.40
2018-12-18T02:50:46.878Z,92.81
2018-12-18T02:51:46.861Z,92.71
2018-12-18T02:52:46.854Z,92.40
2018-12-18T02:53:46.856Z,92.71
2018-12-18T02:54:46.832Z,92.71
2018-12-18T02:55:46.822Z,93.02
2018-12-18T02:56:46.804Z,92.91
2018-12-18T02:57:46.791Z,92.76
2018-12-18T02:58:46.800Z,93.06
2018-12-18T02:59:46.771Z,93.02
2018-12-18T03:00:46.772Z,92.96
2018-12-18T03:01:46.751Z,93.58
2018-12-18T03:02:46.732Z,93.68
2018-12-18T03:03:46.743Z,93.37
2018-12-18T03:04:46.711Z,92.76
2018-12-18T03:05:46.698Z,93.27
2018-12-18T03:06:46.686Z,92.85
2018-12-18T03:07:46.672Z,93.58
2018-12-18T03:08:46.706Z,93.79
2018-12-18T03:09:46.652Z,92.81
2018-12-18T03:10:46.639Z,92.71
2018-12-18T03:11:46.628Z,92.30
2018-12-18T03:12:46.619Z,91.78
2018-12-18T03:13:46.605Z,91.67
2018-12-18T03:14:46.615Z,91.57
2018-12-18T03:15:46.581Z,91.78
2018-12-18T03:16:46.569Z,91.47
2018-12-18T03:17:46.560Z,91.26
2018-12-18T03:18:46.543Z,91.88
2018-12-18T03:19:46.551Z,91.99
2018-12-18T03:20:46.531Z,91.57
2018-12-18T03:21:46.509Z,91.47
2018-12-18T03:22:46.498Z,91.51
2018-12-18T03:23:46.488Z,91.88
2018-12-18T03:24:46.497Z,91.88
2018-12-18T03:25:46.462Z,91.67
2018-12-18T03:26:46.456Z,91.82
2018-12-18T03:27:46.440Z,91.51
2018-12-18T03:28:46.429Z,92.03
2018-12-18T03:29:46.437Z,91.72
2018-12-18T03:30:46.406Z,91.30
2018-12-18T03:31:46.393Z,91.82
2018-12-18T03:32:46.380Z,91.51
2018-12-18T03:33:46.368Z,91.72
2018-12-18T03:34:46.376Z,92.03
2018-12-18T03:35:46.346Z,91.93
2018-12-18T03:36:46.333Z,91.61
2018-12-18T03:37:46.325Z,92.13
2018-12-18T03:38:46.314Z,91.72
2018-12-18T03:39:46.316Z,92.13
2018-12-18T03:40:46.287Z,91.82
2018-12-18T03:41:46.276Z,91.93
2018-12-18T03:42:46.267Z,91.82
2018-12-18T03:43:46.259Z,91.97
2018-12-18T03:44:46.268Z,92.49
2018-12-18T03:45:46.233Z,92.49
2018-12-18T03:46:46.219Z,92.69
2018-12-18T03:47:46.209Z,92.59
2018-12-18T03:48:46.195Z,92.18
2018-12-18T03:49:46.204Z,92.74
2018-12-18T03:50:46.172Z,92.49
2018-12-18T03:51:46.166Z,92.84
2018-12-18T03:52:46.148Z,92.94
2018-12-18T03:53:46.138Z,93.25
2018-12-18T03:54:46.147Z,93.25
2018-12-18T03:55:46.114Z,92.84
2018-12-18T03:56:46.108Z,92.84
2018-12-18T03:57:46.094Z,92.53
2018-12-18T03:58:46.083Z,92.74
2018-12-18T03:59:46.089Z,92.84
2018-12-18T04:00:46.061Z,93.04
2018-12-18T04:01:46.049Z,93.50
2018-12-18T04:02:46.039Z,93.40
2018-12-18T04:03:46.023Z,93.50
2018-12-18T04:04:46.038Z,93.91
2018-12-18T04:05:46.014Z,93.71
2018-12-18T04:06:45.998Z,93.60
2018-12-18T04:07:45.984Z,93.60
2018-12-18T04:08:53.004Z,94.02
2018-12-18T04:09:45.958Z,93.81
2018-12-18T04:10:45.965Z,93.91
2018-12-18T04:11:45.935Z,93.81
2018-12-18T04:12:45.924Z,93.60
2018-12-18T04:13:45.914Z,93.85
2018-12-18T04:14:45.901Z,94.06
2018-12-18T04:15:45.908Z,94.27
2018-12-18T04:16:45.880Z,94.02
2018-12-18T04:17:45.873Z,93.44
2018-12-18T04:18:45.857Z,93.44
2018-12-18T04:19:45.847Z,93.91
2018-12-18T04:20:45.854Z,93.65
2018-12-18T04:21:45.825Z,94.68
2018-12-18T04:22:45.814Z,94.37
2018-12-18T04:23:45.802Z,94.37
2018-12-18T04:24:45.791Z,94.68
2018-12-18T04:25:45.798Z,94.89
2018-12-18T04:26:45.768Z,94.58
2018-12-18T04:27:45.757Z,94.37
2018-12-18T04:28:45.747Z,94.68
2018-12-18T04:29:45.739Z,94.37
2018-12-18T04:30:45.741Z,94.68
2018-12-18T04:31:45.717Z,94.58
2018-12-18T04:32:45.702Z,94.54
2018-12-18T04:33:45.693Z,93.96
2018-12-18T04:34:45.681Z,93.65
2018-12-18T04:35:45.693Z,93.85
2018-12-18T04:36:45.659Z,93.50
2018-12-18T04:37:45.651Z,93.85
2018-12-18T04:38:45.634Z,93.50
2018-12-18T04:39:45.622Z,93.75
2018-12-18T04:40:45.610Z,93.29
2018-12-18T04:41:45.619Z,93.23
2018-12-18T04:42:45.588Z,93.65
2018-12-18T04:43:45.577Z,93.96
2018-12-18T04:44:45.568Z,93.85
2018-12-18T04:45:45.554Z,94.06
2018-12-18T04:46:45.562Z,93.54
2018-12-18T04:47:45.534Z,93.65
2018-12-18T04:48:45.520Z,93.96
2018-12-18T04:49:45.511Z,93.54
2018-12-18T04:50:45.498Z,94.48
2018-12-18T04:51:45.506Z,94.06
2018-12-18T04:52:45.476Z,93.65
2018-12-18T04:53:45.466Z,93.85
2018-12-18T04:54:45.456Z,94.27
2018-12-18T04:55:45.441Z,94.06
2018-12-18T04:56:45.449Z,93.75
2018-12-18T04:57:45.419Z,92.98
2018-12-18T04:58:45.406Z,94.02
2018-12-18T04:59:45.401Z,93.71
2018-12-18T05:00:45.383Z,92.78
2018-12-18T05:01:45.394Z,92.78
2018-12-18T05:02:45.362Z,92.98
2018-12-18T05:03:45.351Z,93.29
2018-12-18T05:04:50.255Z,93.13
2018-12-18T05:05:46.326Z,93.85
2018-12-18T05:06:45.341Z,94.06
2018-12-18T05:07:45.306Z,93.44
2018-12-18T05:08:45.307Z,93.50
2018-12-18T05:09:45.282Z,93.85
2018-12-18T05:10:45.272Z,93.65
2018-12-18T05:11:45.278Z,93.13
2018-12-18T05:12:45.248Z,93.85
2018-12-18T05:13:45.243Z,93.85
2018-12-18T05:14:45.225Z,93.65
2018-12-18T05:15:45.215Z,93.85
2018-12-18T05:16:45.226Z,93.85
2018-12-18T05:17:45.192Z,93.85
2018-12-18T05:18:45.181Z,93.85
2018-12-18T05:19:45.169Z,93.85
2018-12-18T05:20:45.158Z,93.75
2018-12-18T05:21:45.170Z,93.85
2018-12-18T05:22:45.137Z,93.65
2018-12-18T05:23:45.123Z,93.44
2018-12-18T05:24:45.114Z,93.65
2018-12-18T05:25:45.103Z,93.85
2018-12-18T05:26:45.091Z,93.70
2018-12-18T05:27:45.100Z,94.17
2018-12-18T05:28:45.070Z,94.42
2018-12-18T05:29:45.060Z,94.42
2018-12-18T05:30:45.048Z,94.32
2018-12-18T05:31:45.034Z,94.89
2018-12-18T05:32:45.042Z,94.58
2018-12-18T05:33:45.011Z,94.48
2018-12-18T05:34:45.006Z,94.06
2018-12-18T05:35:44.990Z,93.44
2018-12-18T05:36:44.979Z,93.65
2018-12-18T05:37:44.986Z,93.65
2018-12-18T05:38:44.956Z,93.65
2018-12-18T05:39:44.946Z,93.33
2018-12-18T05:40:44.935Z,93.75
2018-12-18T05:41:44.921Z,93.44
2018-12-18T05:42:44.935Z,93.96
2018-12-18T05:43:44.917Z,93.54
2018-12-18T05:44:44.886Z,93.23
2018-12-18T05:45:44.879Z,93.23
2018-12-18T05:46:44.867Z,93.75
2018-12-18T05:47:44.872Z,93.65
2018-12-18T05:48:44.846Z,93.75
2018-12-18T05:49:44.831Z,93.54
2018-12-18T05:50:44.820Z,94.17
2018-12-18T05:51:44.810Z,93.70
2018-12-18T05:52:44.817Z,93.80
2018-12-18T05:53:44.786Z,93.90
2018-12-18T05:54:44.775Z,94.32
2018-12-18T05:55:44.764Z,94.73
2018-12-18T05:56:44.753Z,94.46
2018-12-18T05:57:44.764Z,94.67
2018-12-18T05:58:44.730Z,94.53
2018-12-18T05:59:44.721Z,94.84
2018-12-18T06:00:44.708Z,94.57
2018-12-18T06:01:44.696Z,94.57
2018-12-18T06:02:44.714Z,95.36
2018-12-18T06:03:44.675Z,95.15
2018-12-18T06:04:44.668Z,95.36
2018-12-18T06:05:44.653Z,94.67
2018-12-18T06:06:44.644Z,94.63
2018-12-18T06:07:44.654Z,95.40
2018-12-18T06:08:44.619Z,95.56
2018-12-18T06:09:44.607Z,94.73
2018-12-18T06:10:44.598Z,94.53
2018-12-18T06:11:44.587Z,94.67
2018-12-18T06:12:46.030Z,94.67
2018-12-18T06:13:44.591Z,94.94
2018-12-18T06:14:44.558Z,95.50
2018-12-18T06:15:44.539Z,95.09
2018-12-18T06:16:44.528Z,95.50
2018-12-18T06:17:44.516Z,95.19
2018-12-18T06:18:44.510Z,94.88
2018-12-18T06:19:44.516Z,95.46
2018-12-18T06:20:44.486Z,95.04
2018-12-18T06:21:44.477Z,95.36
2018-12-18T06:22:44.461Z,95.15
2018-12-18T06:23:44.452Z,94.37
2018-12-18T06:24:44.460Z,94.42
2018-12-18T06:25:44.431Z,94.94
2018-12-18T06:26:44.419Z,94.84
2018-12-18T06:27:44.408Z,94.63
2018-12-18T06:28:44.396Z,94.94
2018-12-18T06:29:44.406Z,94.32
2018-12-18T06:30:44.376Z,94.63
2018-12-18T06:31:44.361Z,94.73
2018-12-18T06:32:44.356Z,94.53
2018-12-18T06:33:44.338Z,94.42
2018-12-18T06:34:44.348Z,94.11
2018-12-18T06:35:44.317Z,93.85
2018-12-18T06:36:44.305Z,93.90
2018-12-18T06:37:44.297Z,93.85
2018-12-18T06:38:44.282Z,93.65
2018-12-18T06:39:44.296Z,93.96
2018-12-18T06:40:44.260Z,93.65
2018-12-18T06:41:44.248Z,93.28
2018-12-18T06:42:44.239Z,93.44
2018-12-18T06:43:44.235Z,93.02
2018-12-18T06:44:44.215Z,93.65
2018-12-18T06:45:44.244Z,93.44
2018-12-18T06:46:44.194Z,93.23
2018-12-18T06:47:44.183Z,92.86
2018-12-18T06:48:44.175Z,93.54
2018-12-18T06:49:44.160Z,93.59
2018-12-18T06:50:44.148Z,93.44
2018-12-18T06:51:44.157Z,94.11
2018-12-18T06:52:44.128Z,93.28
2018-12-18T06:53:44.116Z,93.75
2018-12-18T06:54:44.104Z,92.72
2018-12-18T06:55:44.097Z,92.76
2018-12-18T06:56:44.105Z,93.02
2018-12-18T06:57:44.071Z,93.13
2018-12-18T06:58:44.068Z,93.85
2018-12-18T06:59:44.082Z,93.44
2018-12-18T07:00:44.036Z,93.54
2018-12-18T07:01:44.045Z,93.13
2018-12-18T07:02:44.018Z,92.82
2018-12-18T07:03:44.006Z,92.72
2018-12-18T07:04:43.992Z,92.61
2018-12-18T07:05:43.981Z,93.02
2018-12-18T07:06:43.990Z,92.72
2018-12-18T07:07:43.958Z,93.02
2018-12-18T07:08:43.949Z,92.82
2018-12-18T07:09:43.938Z,93.18
2018-12-18T07:10:43.925Z,92.82
2018-12-18T07:11:43.934Z,93.54
2018-12-18T07:12:43.904Z,93.02
2018-12-18T07:13:43.892Z,93.18
2018-12-18T07:14:43.882Z,92.93
2018-12-18T07:15:43.869Z,92.61
2018-12-18T07:16:43.878Z,92.61
2018-12-18T07:17:43.846Z,92.55
2018-12-18T07:18:43.837Z,93.07
2018-12-18T07:19:43.825Z,93.70
2018-12-18T07:20:43.815Z,93.18
2018-12-18T07:21:43.818Z,93.59
2018-12-18T07:22:43.791Z,94.01
2018-12-18T07:23:43.777Z,93.65
2018-12-18T07:24:43.766Z,92.93
2018-12-18T07:25:43.755Z,92.93
2018-12-18T07:26:43.770Z,92.51
2018-12-18T07:27:43.732Z,92.05
2018-12-18T07:28:43.724Z,92.10
2018-12-18T07:29:43.713Z,92.10
2018-12-18T07:30:43.699Z,91.89
2018-12-18T07:31:43.707Z,92.20
2018-12-18T07:32:43.678Z,92.30
2018-12-18T07:33:43.666Z,91.95
2018-12-18T07:34:43.657Z,91.89
2018-12-18T07:35:43.650Z,92.30
2018-12-18T07:36:43.653Z,91.78
2018-12-18T07:37:43.620Z,91.74
2018-12-18T07:38:43.611Z,91.74
2018-12-18T07:39:43.600Z,92.16
2018-12-18T07:40:43.586Z,92.43
2018-12-18T07:41:43.595Z,90.62
2018-12-18T07:42:43.564Z,89.79
2018-12-18T07:43:43.554Z,89.79
2018-12-18T07:44:43.542Z,89.83
2018-12-18T07:45:43.545Z,89.62
2018-12-18T07:46:43.541Z,89.52
2018-12-18T07:47:43.509Z,89.62
2018-12-18T07:48:43.498Z,89.83
2018-12-18T07:49:43.487Z,89.73
2018-12-18T07:50:43.543Z,89.42
2018-12-18T07:51:43.483Z,89.73
2018-12-18T07:52:43.456Z,89.52
2018-12-18T07:53:43.443Z,89.73
2018-12-18T07:54:43.431Z,89.58
2018-12-18T07:55:43.419Z,89.94
2018-12-18T07:56:43.447Z,89.89
2018-12-18T07:57:43.401Z,89.69
2018-12-18T07:58:43.395Z,89.07
2018-12-18T07:59:43.375Z,89.89
2018-12-18T08:00:43.364Z,89.07
2018-12-18T08:01:43.353Z,89.07
2018-12-18T08:02:43.358Z,89.17
2018-12-18T08:03:43.329Z,89.89
2018-12-18T08:04:43.319Z,90.00
2018-12-18T08:05:43.353Z,89.79
2018-12-18T08:06:43.316Z,89.83
2018-12-18T08:07:43.291Z,89.69
2018-12-18T08:08:43.275Z,89.07
2018-12-18T08:09:43.263Z,89.17
2018-12-18T08:10:43.253Z,88.51
2018-12-18T08:11:43.261Z,88.92
2018-12-18T08:12:43.229Z,88.51
2018-12-18T08:13:43.222Z,88.61
2018-12-18T08:14:43.210Z,88.61
2018-12-18T08:15:43.611Z,87.99
2018-12-18T08:16:43.207Z,87.99
2018-12-18T08:17:43.171Z,87.99
2018-12-18T08:18:43.158Z,88.09
2018-12-18T08:19:43.149Z,87.54
2018-12-18T08:20:43.137Z,87.85
2018-12-18T08:21:43.150Z,87.85
2018-12-18T08:22:43.113Z,87.54
2018-12-18T08:23:43.101Z,87.12
2018-12-18T08:24:43.095Z,87.33
2018-12-18T08:25:43.077Z,87.85
2018-12-18T08:26:43.069Z,87.54
2018-12-18T08:27:43.076Z,87.95
2018-12-18T08:28:43.043Z,88.46
2018-12-18T08:29:43.033Z,88.70
2018-12-18T08:30:43.020Z,87.15
2018-12-18T08:31:43.010Z,85.60
2018-12-18T08:32:43.016Z,86.11
2018-12-18T08:33:42.990Z,85.91
2018-12-18T08:34:42.977Z,85.60
2018-12-18T08:35:42.967Z,86.21
2018-12-18T08:36:42.950Z,87.18
2018-12-18T08:37:42.964Z,87.18
2018-12-18T08:38:42.926Z,87.39
2018-12-18T08:39:42.916Z,86.98
2018-12-18T08:40:42.909Z,86.88
2018-12-18T08:41:42.897Z,88.12
2018-12-18T08:42:42.900Z,86.98
2018-12-18T08:43:42.870Z,87.91
2018-12-18T08:44:42.858Z,87.49
2018-12-18T08:45:42.845Z,86.63
2018-12-18T08:46:42.837Z,87.35
2018-12-18T08:47:42.853Z,86.42
2018-12-18T08:48:42.811Z,85.91
2018-12-18T08:49:42.801Z,86.42
2018-12-18T08:50:42.787Z,86.32
2018-12-18T08:51:42.780Z,86.42
2018-12-18T08:52:42.782Z,86.21
2018-12-18T08:53:42.751Z,86.52
2018-12-18T08:54:42.740Z,86.01
2018-12-18T08:55:42.729Z,85.55
2018-12-18T08:56:42.718Z,86.28
2018-12-18T08:57:42.723Z,85.60
2018-12-18T08:58:42.698Z,85.86
2018-12-18T08:59:42.684Z,85.45
2018-12-18T09:00:42.672Z,84.89
2018-12-18T09:01:42.660Z,85.04
2018-12-18T09:02:42.672Z,84.38
2018-12-18T09:03:43.185Z,85.00
2018-12-18T09:04:42.626Z,84.75
2018-12-18T09:05:43.270Z,84.55
2018-12-18T09:06:42.599Z,83.31
2018-12-18T09:07:42.589Z,83.00
2018-12-18T09:08:42.595Z,83.48
2018-12-18T09:09:42.600Z,82.61
2018-12-18T09:10:42.554Z,81.37
2018-12-18T09:11:42.542Z,80.54
2018-12-18T09:12:42.529Z,77.79
2018-12-18T09:13:42.534Z,76.69
2018-12-18T09:14:42.505Z,74.98
2018-12-18T09:15:42.494Z,72.10
2018-12-18T09:16:42.483Z,69.75
2018-12-18T09:17:42.538Z,67.97
2018-12-18T09:18:42.494Z,67.67
2018-12-18T09:19:42.591Z,67.80
2018-12-18T09:20:42.435Z,68.11
2018-12-18T09:21:42.426Z,66.45
2018-12-18T09:22:42.416Z,64.55
2018-12-18T09:23:42.473Z,63.22
2018-12-18T09:24:42.389Z,62.45
2018-12-18T09:25:42.412Z,61.50
2018-12-18T09:26:42.368Z,61.71
2018-12-18T09:27:42.356Z,61.19
2018-12-18T09:28:42.363Z,61.68
2018-12-18T09:29:42.333Z,61.07
2018-12-18T09:30:42.864Z,61.40
2018-12-18T09:31:42.310Z,62.39
2018-12-18T09:32:42.351Z,60.86
2018-12-18T09:33:42.306Z,61.53
2018-12-18T09:34:42.275Z,62.95
2018-12-18T09:35:42.291Z,65.08
2018-12-18T09:36:42.250Z,67.40
2018-12-18T09:37:42.241Z,67.60
2018-12-18T09:38:42.245Z,67.60
2018-12-18T09:39:42.216Z,67.80
2018-12-18T09:40:42.204Z,68.21
2018-12-18T09:41:42.199Z,68.35
2018-12-18T09:42:42.181Z,69.78
2018-12-18T09:43:42.195Z,68.69
2018-12-18T09:44:42.158Z,67.68
2018-12-18T09:45:37.266Z,65.33
2018-12-18T09:46:37.342Z,66.31
2018-12-18T09:47:37.243Z,64.34
2018-12-18T09:48:37.231Z,64.11
2018-12-18T09:49:37.236Z,62.58
2018-12-18T09:50:37.207Z,63.67
2018-12-18T09:51:37.196Z,62.45
2018-12-18T09:52:37.185Z,62.76
2018-12-18T09:53:37.174Z,62.01
2018-12-18T09:54:37.182Z,60.83
2018-12-18T09:55:37.151Z,59.86
2018-12-18T09:56:37.138Z,57.90
2018-12-18T09:57:37.127Z,58.04
2018-12-18T09:58:37.167Z,56.37
2018-12-18T09:59:37.124Z,56.09
2018-12-18T10:00:37.092Z,58.23
2018-12-18T10:01:37.082Z,58.76
2018-12-18T10:02:37.076Z,58.71
2018-12-18T10:03:37.062Z,57.90
2018-12-18T10:04:37.070Z,57.56
2018-12-18T10:05:37.036Z,57.46
2018-12-18T10:06:37.024Z,57.90
2018-12-18T10:07:37.011Z,58.53
2018-12-18T10:08:37.002Z,58.44
2018-12-18T10:09:36.989Z,58.13
2018-12-18T10:10:36.995Z,59.68
2018-12-18T10:11:36.965Z,59.58
2018-12-18T10:12:36.960Z,59.89
2018-12-18T10:13:36.942Z,59.17
2018-12-18T10:14:36.930Z,60.32
2018-12-18T10:15:36.939Z,60.05
2018-12-18T10:16:36.907Z,60.99
2018-12-18T10:17:36.896Z,61.09
2018-12-18T10:18:36.883Z,61.09
2018-12-18T10:19:36.877Z,60.86
2018-12-18T10:20:36.899Z,59.55
2018-12-18T10:21:36.848Z,57.16
2018-12-18T10:22:36.835Z,55.66
2018-12-18T10:23:36.823Z,56.26
2018-12-18T10:24:36.811Z,55.43
2018-12-18T10:25:36.801Z,55.45
2018-12-18T10:26:36.870Z,55.78
2018-12-18T10:27:36.777Z,55.83
2018-12-18T10:28:36.768Z,54.77
2018-12-18T10:29:36.756Z,51.88
2018-12-18T10:30:36.741Z,51.80
2018-12-18T10:31:36.749Z,52.51
2018-12-18T10:32:36.718Z,52.86
2018-12-18T10:33:36.710Z,53.75
2018-12-18T10:34:36.696Z,53.32
2018-12-18T10:35:36.855Z,52.48
2018-12-18T10:36:36.695Z,52.06
2018-12-18T10:37:36.665Z,50.54
2018-12-18T10:38:36.649Z,51.86
2018-12-18T10:39:36.642Z,51.55
2018-12-18T10:40:36.626Z,52.64
2018-12-18T10:41:36.638Z,52.28
2018-12-18T10:42:36.604Z,52.56
2018-12-18T10:43:36.591Z,52.06
2018-12-18T10:44:36.584Z,50.82
2018-12-18T10:45:36.569Z,51.83
2018-12-18T10:46:36.561Z,51.25
2018-12-18T10:47:36.567Z,51.90
2018-12-18T10:48:36.536Z,53.47
2018-12-18T10:49:36.524Z,53.02
2018-12-18T10:50:36.515Z,54.11
2018-12-18T10:51:36.502Z,54.74
2018-12-18T10:52:36.509Z,56.21
2018-12-18T10:53:36.484Z,56.01
2018-12-18T10:54:36.470Z,55.81
2018-12-18T10:55:36.461Z,55.99
2018-12-18T10:56:36.444Z,55.58
2018-12-18T10:57:36.464Z,55.86
2018-12-18T10:58:36.419Z,56.47
2018-12-18T10:59:36.410Z,56.49
2018-12-18T11:00:36.400Z,55.00
2018-12-18T11:01:36.386Z,55.94
2018-12-18T11:02:36.400Z,57.16
2018-12-18T11:03:36.363Z,57.18
2018-12-18T11:04:36.352Z,57.36
2018-12-18T11:05:36.339Z,56.98
2018-12-18T11:06:36.329Z,57.06
2018-12-18T11:07:36.339Z,56.55
2018-12-18T11:08:36.305Z,57.03
2018-12-18T11:09:36.296Z,56.93
2018-12-18T11:10:36.284Z,57.16
2018-12-18T11:11:36.271Z,57.46
2018-12-18T11:12:36.259Z,57.39
2018-12-18T11:13:36.269Z,57.18
2018-12-18T11:14:36.281Z,57.87
2018-12-18T11:15:36.227Z,57.03
2018-12-18T11:16:37.504Z,55.60
2018-12-18T11:17:36.201Z,57.03
2018-12-18T11:18:36.207Z,56.95
2018-12-18T11:19:36.178Z,57.59
2018-12-18T11:20:36.166Z,56.45
2018-12-18T11:21:36.155Z,57.39
2018-12-18T11:22:36.448Z,57.42
2018-12-18T11:23:36.151Z,58.13
2018-12-18T11:24:36.121Z,58.97
2018-12-18T11:25:36.109Z,59.30
2018-12-18T11:26:36.097Z,58.89
2018-12-18T11:27:36.088Z,59.53
2018-12-18T11:28:36.097Z,59.16
2018-12-18T11:29:36.061Z,60.41
2018-12-18T11:30:36.050Z,61.66
2018-12-18T11:31:36.040Z,61.22
2018-12-18T11:32:36.025Z,60.96
2018-12-18T11:33:36.015Z,60.48
2018-12-18T11:34:36.022Z,60.82
2018-12-18T11:35:35.991Z,61.53
2018-12-18T11:36:35.979Z,61.50
2018-12-18T11:37:35.972Z,61.63
2018-12-18T11:38:35.957Z,61.66
2018-12-18T11:39:35.965Z,61.87
2018-12-18T11:40:35.936Z,61.46
2018-12-18T11:41:35.921Z,62.61
2018-12-18T11:42:35.913Z,62.61
2018-12-18T11:43:35.899Z,62.81
2018-12-18T11:44:35.912Z,61.49
2018-12-18T11:45:35.881Z,62.74
2018-12-18T11:46:35.865Z,62.66
2018-12-18T11:47:35.852Z,63.79
2018-12-18T11:48:35.872Z,64.03
2018-12-18T11:49:35.832Z,65.28
2018-12-18T11:50:35.835Z,65.28
2018-12-18T11:51:35.808Z,64.84
2018-12-18T11:52:35.795Z,65.18
2018-12-18T11:53:35.784Z,65.08
2018-12-18T11:54:35.791Z,66.00
2018-12-18T11:55:35.761Z,65.59
2018-12-18T11:56:35.751Z,66.10
2018-12-18T11:57:35.738Z,66.82
2018-12-18T11:58:35.729Z,65.28
2018-12-18T11:59:35.736Z,64.95
2018-12-18T12:00:35.704Z,65.90
2018-12-18T12:01:35.692Z,65.49
2018-12-18T12:02:35.680Z,64.67
2018-12-18T12:03:35.672Z,65.28
2018-12-18T12:04:35.663Z,66.34
2018-12-18T12:05:35.665Z,66.34
2018-12-18T12:06:35.635Z,66.75
2018-12-18T12:07:35.622Z,65.83
2018-12-18T12:08:35.614Z,66.10
2018-12-18T12:09:35.600Z,65.80
2018-12-18T12:10:35.612Z,65.62
2018-12-18T12:11:35.576Z,65.45
2018-12-18T12:12:35.564Z,66.88
2018-12-18T12:13:35.551Z,67.60
2018-12-18T12:14:35.540Z,67.60
2018-12-18T12:15:35.537Z,67.49
2018-12-18T12:16:35.550Z,67.19
2018-12-18T12:17:35.505Z,67.80
2018-12-18T12:18:35.494Z,66.85
2018-12-18T12:19:35.483Z,66.44
2018-12-18T12:20:35.473Z,65.42
2018-12-18T12:21:35.477Z,65.86
2018-12-18T12:22:35.446Z,66.27
2018-12-18T12:23:35.436Z,66.78
2018-12-18T12:24:35.426Z,67.29
2018-12-18T12:25:35.412Z,67.40
2018-12-18T12:26:35.441Z,67.26
2018-12-18T12:27:35.405Z,67.26
2018-12-18T12:28:35.378Z,66.78
2018-12-18T12:29:35.365Z,66.98
2018-12-18T12:30:35.356Z,66.88
2018-12-18T12:31:35.343Z,66.37
2018-12-18T12:32:35.351Z,67.80
2018-12-18T12:33:35.318Z,67.40
2018-12-18T12:34:35.306Z,66.88
2018-12-18T12:35:35.296Z,67.19
2018-12-18T12:36:35.309Z,67.49
2018-12-18T12:37:35.271Z,66.98
2018-12-18T12:38:35.259Z,66.85
2018-12-18T12:39:35.249Z,67.46
2018-12-18T12:40:35.235Z,65.42
2018-12-18T12:41:35.224Z,66.88
2018-12-18T12:42:35.230Z,66.78
2018-12-18T12:43:35.200Z,66.88
2018-12-18T12:44:35.189Z,66.98
2018-12-18T12:45:35.176Z,66.88
2018-12-18T12:46:35.189Z,66.57
2018-12-18T12:47:35.160Z,66.47
2018-12-18T12:48:35.143Z,67.29
2018-12-18T12:49:35.131Z,67.16
2018-12-18T12:50:35.119Z,66.98
2018-12-18T12:51:35.109Z,68.41
2018-12-18T12:52:35.119Z,67.05